sensor_id;sensor_type;location;lat;lon;timestamp;temperature;humidity
9998;DHT22;5038;53.064;8.624;2023-05-14T00:01:04;14.20;90.40
9998;DHT22;5038;53.064;8.624;2023-05-14T00:03:35;14.10;90.40
9998;DHT22;5038;53.064;8.624;2023-05-14T00:06:05;14.10;90.50
9998;DHT22;5038;53.064;8.624;2023-05-14T00:08:34;14.10;90.60
9998;DHT22;5038;53.064;8.624;2023-05-14T00:11:02;14.00;90.70
9998;DHT22;5038;53.064;8.624;2023-05-14T00:13:30;14.00;90.80
9998;DHT22;5038;53.064;8.624;2023-05-14T00:15:59;13.90;90.80
9998;DHT22;5038;53.064;8.624;2023-05-14T00:18:27;13.90;90.90
9998;DHT22;5038;53.064;8.624;2023-05-14T00:20:56;13.90;91.00
9998;DHT22;5038;53.064;8.624;2023-05-14T00:23:24;13.80;91.00
9998;DHT22;5038;53.064;8.624;2023-05-14T00:25:52;13.80;91.10
9998;DHT22;5038;53.064;8.624;2023-05-14T00:28:20;13.80;91.20
9998;DHT22;5038;53.064;8.624;2023-05-14T00:30:49;13.70;91.30
9998;DHT22;5038;53.064;8.624;2023-05-14T00:33:17;13.70;91.40
9998;DHT22;5038;53.064;8.624;2023-05-14T00:35:45;13.60;91.40
9998;DHT22;5038;53.064;8.624;2023-05-14T00:38:15;13.60;91.50
9998;DHT22;5038;53.064;8.624;2023-05-14T00:40:45;13.60;91.60
9998;DHT22;5038;53.064;8.624;2023-05-14T00:43:18;13.60;91.70
9998;DHT22;5038;53.064;8.624;2023-05-14T00:45:46;13.50;91.70
9998;DHT22;5038;53.064;8.624;2023-05-14T00:48:17;13.50;91.80
9998;DHT22;5038;53.064;8.624;2023-05-14T00:50:46;13.50;91.90
9998;DHT22;5038;53.064;8.624;2023-05-14T00:53:17;13.50;92.00
9998;DHT22;5038;53.064;8.624;2023-05-14T00:55:46;13.40;92.00
9998;DHT22;5038;53.064;8.624;2023-05-14T00:58:17;13.40;92.10
9998;DHT22;5038;53.064;8.624;2023-05-14T01:00:45;13.40;92.20
9998;DHT22;5038;53.064;8.624;2023-05-14T01:03:13;13.30;92.30
9998;DHT22;5038;53.064;8.624;2023-05-14T01:05:49;13.30;92.40
9998;DHT22;5038;53.064;8.624;2023-05-14T01:08:26;13.30;92.50
9998;DHT22;5038;53.064;8.624;2023-05-14T01:11:04;13.30;92.60
9998;DHT22;5038;53.064;8.624;2023-05-14T01:13:45;13.20;92.60
9998;DHT22;5038;53.064;8.624;2023-05-14T01:16:17;13.20;92.70
9998;DHT22;5038;53.064;8.624;2023-05-14T01:18:48;13.20;92.70
9998;DHT22;5038;53.064;8.624;2023-05-14T01:21:32;13.20;92.80
9998;DHT22;5038;53.064;8.624;2023-05-14T01:24:01;13.10;92.90
9998;DHT22;5038;53.064;8.624;2023-05-14T01:26:30;13.10;93.00
9998;DHT22;5038;53.064;8.624;2023-05-14T01:29:01;13.10;93.10
9998;DHT22;5038;53.064;8.624;2023-05-14T01:31:31;13.00;93.10
9998;DHT22;5038;53.064;8.624;2023-05-14T01:34:01;13.00;93.10
9998;DHT22;5038;53.064;8.624;2023-05-14T01:36:32;13.00;93.20
9998;DHT22;5038;53.064;8.624;2023-05-14T01:39:01;13.00;93.30
9998;DHT22;5038;53.064;8.624;2023-05-14T01:41:30;12.90;93.60
9998;DHT22;5038;53.064;8.624;2023-05-14T01:44:00;12.90;93.40
9998;DHT22;5038;53.064;8.624;2023-05-14T01:46:30;12.90;93.40
9998;DHT22;5038;53.064;8.624;2023-05-14T01:48:58;12.90;93.50
9998;DHT22;5038;53.064;8.624;2023-05-14T01:51:27;12.80;93.80
9998;DHT22;5038;53.064;8.624;2023-05-14T01:53:56;12.80;93.60
9998;DHT22;5038;53.064;8.624;2023-05-14T01:56:24;12.80;93.70
9998;DHT22;5038;53.064;8.624;2023-05-14T01:58:52;12.80;93.80
9998;DHT22;5038;53.064;8.624;2023-05-14T02:01:21;12.70;93.80
9998;DHT22;5038;53.064;8.624;2023-05-14T02:03:51;12.70;93.90
9998;DHT22;5038;53.064;8.624;2023-05-14T02:06:20;12.70;94.00
9998;DHT22;5038;53.064;8.624;2023-05-14T02:08:48;12.60;94.10
9998;DHT22;5038;53.064;8.624;2023-05-14T02:11:18;12.60;94.10
9998;DHT22;5038;53.064;8.624;2023-05-14T02:13:47;12.60;94.20
9998;DHT22;5038;53.064;8.624;2023-05-14T02:16:15;12.60;94.30
9998;DHT22;5038;53.064;8.624;2023-05-14T02:18:45;12.50;94.30
9998;DHT22;5038;53.064;8.624;2023-05-14T02:21:13;12.50;94.40
9998;DHT22;5038;53.064;8.624;2023-05-14T02:23:41;12.40;94.50
9998;DHT22;5038;53.064;8.624;2023-05-14T02:26:10;12.40;94.50
9998;DHT22;5038;53.064;8.624;2023-05-14T02:28:39;12.40;94.60
9998;DHT22;5038;53.064;8.624;2023-05-14T02:31:08;12.40;94.70
9998;DHT22;5038;53.064;8.624;2023-05-14T02:33:36;12.30;94.70
9998;DHT22;5038;53.064;8.624;2023-05-14T02:36:04;12.30;94.80
9998;DHT22;5038;53.064;8.624;2023-05-14T02:38:32;12.30;94.80
9998;DHT22;5038;53.064;8.624;2023-05-14T02:41:00;12.20;94.80
9998;DHT22;5038;53.064;8.624;2023-05-14T02:43:28;12.20;94.90
9998;DHT22;5038;53.064;8.624;2023-05-14T02:45:58;12.20;94.90
9998;DHT22;5038;53.064;8.624;2023-05-14T02:48:26;12.20;95.00
9998;DHT22;5038;53.064;8.624;2023-05-14T02:50:54;12.10;95.00
9998;DHT22;5038;53.064;8.624;2023-05-14T02:53:22;12.10;95.10
9998;DHT22;5038;53.064;8.624;2023-05-14T02:55:50;12.10;95.20
9998;DHT22;5038;53.064;8.624;2023-05-14T02:58:18;12.00;95.20
9998;DHT22;5038;53.064;8.624;2023-05-14T03:00:54;12.00;95.30
9998;DHT22;5038;53.064;8.624;2023-05-14T03:03:24;12.00;95.40
9998;DHT22;5038;53.064;8.624;2023-05-14T03:05:52;12.00;95.50
9998;DHT22;5038;53.064;8.624;2023-05-14T03:08:21;11.90;95.50
9998;DHT22;5038;53.064;8.624;2023-05-14T03:10:49;11.90;95.60
9998;DHT22;5038;53.064;8.624;2023-05-14T03:13:17;11.90;95.80
9998;DHT22;5038;53.064;8.624;2023-05-14T03:15:46;11.80;95.80
9998;DHT22;5038;53.064;8.624;2023-05-14T03:18:14;11.80;95.90
9998;DHT22;5038;53.064;8.624;2023-05-14T03:20:46;11.70;95.90
9998;DHT22;5038;53.064;8.624;2023-05-14T03:23:14;11.70;96.00
9998;DHT22;5038;53.064;8.624;2023-05-14T03:25:42;11.70;96.10
9998;DHT22;5038;53.064;8.624;2023-05-14T03:28:11;11.70;96.20
9998;DHT22;5038;53.064;8.624;2023-05-14T03:30:39;11.70;96.20
9998;DHT22;5038;53.064;8.624;2023-05-14T03:33:09;11.60;96.30
9998;DHT22;5038;53.064;8.624;2023-05-14T03:35:37;11.70;96.40
9998;DHT22;5038;53.064;8.624;2023-05-14T03:38:06;11.60;96.40
9998;DHT22;5038;53.064;8.624;2023-05-14T03:40:34;11.60;96.50
9998;DHT22;5038;53.064;8.624;2023-05-14T03:43:02;11.60;96.60
9998;DHT22;5038;53.064;8.624;2023-05-14T03:45:31;11.60;96.70
9998;DHT22;5038;53.064;8.624;2023-05-14T03:47:59;11.60;96.80
9998;DHT22;5038;53.064;8.624;2023-05-14T03:50:28;11.60;96.80
9998;DHT22;5038;53.064;8.624;2023-05-14T03:52:57;11.60;96.90
9998;DHT22;5038;53.064;8.624;2023-05-14T03:55:26;11.60;97.00
9998;DHT22;5038;53.064;8.624;2023-05-14T03:57:54;11.60;97.10
9998;DHT22;5038;53.064;8.624;2023-05-14T04:00:22;11.60;97.10
9998;DHT22;5038;53.064;8.624;2023-05-14T04:02:53;11.60;97.20
9998;DHT22;5038;53.064;8.624;2023-05-14T04:05:23;11.70;97.30
9998;DHT22;5038;53.064;8.624;2023-05-14T04:07:51;11.70;97.30
9998;DHT22;5038;53.064;8.624;2023-05-14T04:10:19;11.70;97.40
9998;DHT22;5038;53.064;8.624;2023-05-14T04:12:49;11.70;97.50
9998;DHT22;5038;53.064;8.624;2023-05-14T04:15:18;11.70;97.60
9998;DHT22;5038;53.064;8.624;2023-05-14T04:17:46;11.70;97.60
9998;DHT22;5038;53.064;8.624;2023-05-14T04:20:14;11.80;97.70
9998;DHT22;5038;53.064;8.624;2023-05-14T04:22:43;11.80;97.70
9998;DHT22;5038;53.064;8.624;2023-05-14T04:25:11;11.80;97.80
9998;DHT22;5038;53.064;8.624;2023-05-14T04:27:39;11.80;97.80
9998;DHT22;5038;53.064;8.624;2023-05-14T04:30:09;11.80;97.90
9998;DHT22;5038;53.064;8.624;2023-05-14T04:32:37;11.90;98.00
9998;DHT22;5038;53.064;8.624;2023-05-14T04:35:07;11.90;98.00
9998;DHT22;5038;53.064;8.624;2023-05-14T04:37:35;11.90;98.00
9998;DHT22;5038;53.064;8.624;2023-05-14T04:40:05;12.00;98.10
9998;DHT22;5038;53.064;8.624;2023-05-14T04:42:33;12.00;98.10
9998;DHT22;5038;53.064;8.624;2023-05-14T04:45:02;12.00;98.20
9998;DHT22;5038;53.064;8.624;2023-05-14T04:47:32;12.00;98.20
9998;DHT22;5038;53.064;8.624;2023-05-14T04:50:00;12.10;98.30
9998;DHT22;5038;53.064;8.624;2023-05-14T04:52:28;12.10;98.30
9998;DHT22;5038;53.064;8.624;2023-05-14T04:54:56;12.10;98.40
9998;DHT22;5038;53.064;8.624;2023-05-14T04:57:25;12.20;98.40
9998;DHT22;5038;53.064;8.624;2023-05-14T04:59:53;12.20;98.50
9998;DHT22;5038;53.064;8.624;2023-05-14T05:02:21;12.20;98.60
9998;DHT22;5038;53.064;8.624;2023-05-14T05:04:50;12.30;98.70
9998;DHT22;5038;53.064;8.624;2023-05-14T05:07:18;12.30;98.70
9998;DHT22;5038;53.064;8.624;2023-05-14T05:09:46;12.30;98.70
9998;DHT22;5038;53.064;8.624;2023-05-14T05:12:14;12.40;98.80
9998;DHT22;5038;53.064;8.624;2023-05-14T05:14:43;12.40;99.10
9998;DHT22;5038;53.064;8.624;2023-05-14T05:17:11;12.50;99.00
9998;DHT22;5038;53.064;8.624;2023-05-14T05:19:39;12.50;99.00
9998;DHT22;5038;53.064;8.624;2023-05-14T05:22:11;12.50;99.10
9998;DHT22;5038;53.064;8.624;2023-05-14T05:24:39;12.60;99.10
9998;DHT22;5038;53.064;8.624;2023-05-14T05:27:07;12.60;99.20
9998;DHT22;5038;53.064;8.624;2023-05-14T05:29:35;12.70;99.30
9998;DHT22;5038;53.064;8.624;2023-05-14T05:32:04;12.70;99.30
9998;DHT22;5038;53.064;8.624;2023-05-14T05:34:33;12.80;99.50
9998;DHT22;5038;53.064;8.624;2023-05-14T05:37:02;12.80;99.50
9998;DHT22;5038;53.064;8.624;2023-05-14T05:39:33;12.90;99.60
9998;DHT22;5038;53.064;8.624;2023-05-14T05:42:01;12.90;99.60
9998;DHT22;5038;53.064;8.624;2023-05-14T05:44:29;13.00;99.70
9998;DHT22;5038;53.064;8.624;2023-05-14T05:46:57;13.00;99.80
9998;DHT22;5038;53.064;8.624;2023-05-14T05:49:25;13.10;99.90
9998;DHT22;5038;53.064;8.624;2023-05-14T05:51:54;13.20;99.90
9998;DHT22;5038;53.064;8.624;2023-05-14T05:54:22;13.20;99.90
9998;DHT22;5038;53.064;8.624;2023-05-14T05:56:52;13.30;99.90
9998;DHT22;5038;53.064;8.624;2023-05-14T05:59:20;13.30;99.90
9998;DHT22;5038;53.064;8.624;2023-05-14T06:01:48;13.40;99.90
9998;DHT22;5038;53.064;8.624;2023-05-14T06:04:16;13.50;99.90
9998;DHT22;5038;53.064;8.624;2023-05-14T06:06:44;13.50;99.90
9998;DHT22;5038;53.064;8.624;2023-05-14T06:09:12;13.60;99.90
9998;DHT22;5038;53.064;8.624;2023-05-14T06:11:41;13.60;99.90
9998;DHT22;5038;53.064;8.624;2023-05-14T06:14:11;13.70;99.90
9998;DHT22;5038;53.064;8.624;2023-05-14T06:16:39;13.70;99.90
9998;DHT22;5038;53.064;8.624;2023-05-14T06:19:07;13.80;99.90
9998;DHT22;5038;53.064;8.624;2023-05-14T06:21:36;13.90;99.90
9998;DHT22;5038;53.064;8.624;2023-05-14T06:24:04;13.90;99.90
9998;DHT22;5038;53.064;8.624;2023-05-14T06:26:32;14.00;99.90
9998;DHT22;5038;53.064;8.624;2023-05-14T06:29:00;14.10;99.90
9998;DHT22;5038;53.064;8.624;2023-05-14T06:31:30;14.10;99.90
9998;DHT22;5038;53.064;8.624;2023-05-14T06:33:58;14.20;99.90
9998;DHT22;5038;53.064;8.624;2023-05-14T06:36:26;14.30;99.90
9998;DHT22;5038;53.064;8.624;2023-05-14T06:38:54;14.30;99.90
9998;DHT22;5038;53.064;8.624;2023-05-14T06:41:22;14.40;99.90
9998;DHT22;5038;53.064;8.624;2023-05-14T06:43:50;14.40;99.90
9998;DHT22;5038;53.064;8.624;2023-05-14T06:46:18;14.50;99.90
9998;DHT22;5038;53.064;8.624;2023-05-14T06:48:48;14.70;99.90
9998;DHT22;5038;53.064;8.624;2023-05-14T06:51:16;14.70;99.90
9998;DHT22;5038;53.064;8.624;2023-05-14T06:53:44;14.80;99.90
9998;DHT22;5038;53.064;8.624;2023-05-14T06:56:14;14.90;99.90
9998;DHT22;5038;53.064;8.624;2023-05-14T06:58:42;15.00;99.90
9998;DHT22;5038;53.064;8.624;2023-05-14T07:01:10;15.10;99.90
9998;DHT22;5038;53.064;8.624;2023-05-14T07:03:38;15.20;99.90
9998;DHT22;5038;53.064;8.624;2023-05-14T07:06:08;15.40;99.90
9998;DHT22;5038;53.064;8.624;2023-05-14T07:08:39;15.60;99.90
9998;DHT22;5038;53.064;8.624;2023-05-14T07:11:07;15.80;99.90
9998;DHT22;5038;53.064;8.624;2023-05-14T07:13:35;16.00;99.90
9998;DHT22;5038;53.064;8.624;2023-05-14T07:16:04;16.10;99.90
9998;DHT22;5038;53.064;8.624;2023-05-14T07:18:32;16.30;99.90
9998;DHT22;5038;53.064;8.624;2023-05-14T07:21:01;16.40;99.90
9998;DHT22;5038;53.064;8.624;2023-05-14T07:23:32;16.50;99.90
9998;DHT22;5038;53.064;8.624;2023-05-14T07:26:02;16.60;99.90
9998;DHT22;5038;53.064;8.624;2023-05-14T07:28:30;16.70;99.90
9998;DHT22;5038;53.064;8.624;2023-05-14T07:30:58;16.80;99.90
9998;DHT22;5038;53.064;8.624;2023-05-14T07:33:26;16.90;99.90
9998;DHT22;5038;53.064;8.624;2023-05-14T07:35:54;17.00;99.90
9998;DHT22;5038;53.064;8.624;2023-05-14T07:38:23;17.10;99.90
9998;DHT22;5038;53.064;8.624;2023-05-14T07:40:53;17.20;99.90
9998;DHT22;5038;53.064;8.624;2023-05-14T07:43:21;17.30;99.90
9998;DHT22;5038;53.064;8.624;2023-05-14T07:45:49;17.40;99.90
9998;DHT22;5038;53.064;8.624;2023-05-14T07:48:17;17.50;99.90
9998;DHT22;5038;53.064;8.624;2023-05-14T07:50:46;17.70;99.90
9998;DHT22;5038;53.064;8.624;2023-05-14T07:53:14;17.80;99.90
9998;DHT22;5038;53.064;8.624;2023-05-14T07:55:44;18.00;99.90
9998;DHT22;5038;53.064;8.624;2023-05-14T07:58:15;18.10;99.90
9998;DHT22;5038;53.064;8.624;2023-05-14T08:00:43;18.30;99.90
9998;DHT22;5038;53.064;8.624;2023-05-14T08:03:11;18.50;99.90
9998;DHT22;5038;53.064;8.624;2023-05-14T08:05:39;18.60;99.90
9998;DHT22;5038;53.064;8.624;2023-05-14T08:08:08;18.70;99.90
9998;DHT22;5038;53.064;8.624;2023-05-14T08:10:36;18.80;99.90
9998;DHT22;5038;53.064;8.624;2023-05-14T08:13:04;18.90;99.90
9998;DHT22;5038;53.064;8.624;2023-05-14T08:15:33;19.00;99.90
9998;DHT22;5038;53.064;8.624;2023-05-14T08:18:02;19.10;99.90
9998;DHT22;5038;53.064;8.624;2023-05-14T08:20:30;19.20;99.90
9998;DHT22;5038;53.064;8.624;2023-05-14T08:22:58;19.30;99.90
9998;DHT22;5038;53.064;8.624;2023-05-14T08:25:27;19.30;99.90
9998;DHT22;5038;53.064;8.624;2023-05-14T08:27:55;19.40;99.90
9998;DHT22;5038;53.064;8.624;2023-05-14T08:30:25;19.40;99.90
9998;DHT22;5038;53.064;8.624;2023-05-14T08:32:55;19.40;99.60
9998;DHT22;5038;53.064;8.624;2023-05-14T08:35:23;19.40;99.40
9998;DHT22;5038;53.064;8.624;2023-05-14T08:37:51;19.50;99.40
9998;DHT22;5038;53.064;8.624;2023-05-14T08:40:19;19.50;99.20
9998;DHT22;5038;53.064;8.624;2023-05-14T08:42:50;19.60;99.10
9998;DHT22;5038;53.064;8.624;2023-05-14T08:45:19;19.70;99.00
9998;DHT22;5038;53.064;8.624;2023-05-14T08:47:48;19.80;98.90
9998;DHT22;5038;53.064;8.624;2023-05-14T08:50:18;19.80;98.80
9998;DHT22;5038;53.064;8.624;2023-05-14T08:52:49;19.90;98.90
9998;DHT22;5038;53.064;8.624;2023-05-14T08:55:19;19.90;98.60
9998;DHT22;5038;53.064;8.624;2023-05-14T08:57:48;20.00;98.50
9998;DHT22;5038;53.064;8.624;2023-05-14T09:00:16;20.10;98.40
9998;DHT22;5038;53.064;8.624;2023-05-14T09:02:45;20.20;98.30
9998;DHT22;5038;53.064;8.624;2023-05-14T09:05:16;20.20;98.10
9998;DHT22;5038;53.064;8.624;2023-05-14T09:07:46;20.30;98.00
9998;DHT22;5038;53.064;8.624;2023-05-14T09:10:14;20.30;98.00
9998;DHT22;5038;53.064;8.624;2023-05-14T09:12:43;20.40;97.90
9998;DHT22;5038;53.064;8.624;2023-05-14T09:15:11;20.50;97.70
9998;DHT22;5038;53.064;8.624;2023-05-14T09:17:39;20.60;97.50
9998;DHT22;5038;53.064;8.624;2023-05-14T09:20:09;20.60;97.50
9998;DHT22;5038;53.064;8.624;2023-05-14T09:22:39;20.70;97.40
9998;DHT22;5038;53.064;8.624;2023-05-14T09:25:09;20.70;97.10
9998;DHT22;5038;53.064;8.624;2023-05-14T09:27:38;20.80;97.00
9998;DHT22;5038;53.064;8.624;2023-05-14T09:30:08;20.80;97.00
9998;DHT22;5038;53.064;8.624;2023-05-14T09:32:38;20.90;96.90
9998;DHT22;5038;53.064;8.624;2023-05-14T09:35:11;20.90;96.70
9998;DHT22;5038;53.064;8.624;2023-05-14T09:37:42;21.00;96.70
9998;DHT22;5038;53.064;8.624;2023-05-14T09:40:13;21.10;96.60
9998;DHT22;5038;53.064;8.624;2023-05-14T09:42:41;21.10;96.50
9998;DHT22;5038;53.064;8.624;2023-05-14T09:45:10;21.20;96.50
9998;DHT22;5038;53.064;8.624;2023-05-14T09:47:38;21.30;96.50
9998;DHT22;5038;53.064;8.624;2023-05-14T09:50:07;21.30;96.10
9998;DHT22;5038;53.064;8.624;2023-05-14T09:52:36;21.30;95.90
9998;DHT22;5038;53.064;8.624;2023-05-14T09:55:06;21.40;96.00
9998;DHT22;5038;53.064;8.624;2023-05-14T09:57:36;21.50;95.90
9998;DHT22;5038;53.064;8.624;2023-05-14T10:00:05;21.50;95.70
9998;DHT22;5038;53.064;8.624;2023-05-14T10:02:36;21.60;95.50
9998;DHT22;5038;53.064;8.624;2023-05-14T10:05:07;21.60;95.50
9998;DHT22;5038;53.064;8.624;2023-05-14T10:07:38;21.60;95.50
9998;DHT22;5038;53.064;8.624;2023-05-14T10:10:11;21.70;95.50
9998;DHT22;5038;53.064;8.624;2023-05-14T10:12:45;21.70;95.30
9998;DHT22;5038;53.064;8.624;2023-05-14T10:15:22;21.70;95.00
9998;DHT22;5038;53.064;8.624;2023-05-14T10:17:55;21.80;95.00
9998;DHT22;5038;53.064;8.624;2023-05-14T10:20:26;21.80;95.00
9998;DHT22;5038;53.064;8.624;2023-05-14T10:22:55;21.90;95.00
9998;DHT22;5038;53.064;8.624;2023-05-14T10:25:23;21.90;95.00
9998;DHT22;5038;53.064;8.624;2023-05-14T10:27:53;22.00;94.90
9998;DHT22;5038;53.064;8.624;2023-05-14T10:30:22;22.00;94.70
9998;DHT22;5038;53.064;8.624;2023-05-14T10:33:05;22.00;94.50
9998;DHT22;5038;53.064;8.624;2023-05-14T10:35:54;22.10;94.40
9998;DHT22;5038;53.064;8.624;2023-05-14T10:38:25;22.20;94.30
9998;DHT22;5038;53.064;8.624;2023-05-14T10:40:55;22.20;94.10
9998;DHT22;5038;53.064;8.624;2023-05-14T10:43:27;22.30;94.00
9998;DHT22;5038;53.064;8.624;2023-05-14T10:45:57;22.30;94.00
9998;DHT22;5038;53.064;8.624;2023-05-14T10:48:25;22.30;93.80
9998;DHT22;5038;53.064;8.624;2023-05-14T10:50:54;22.40;93.60
9998;DHT22;5038;53.064;8.624;2023-05-14T10:53:31;22.40;93.60
9998;DHT22;5038;53.064;8.624;2023-05-14T10:56:04;22.50;93.60
9998;DHT22;5038;53.064;8.624;2023-05-14T10:58:36;22.50;93.50
9998;DHT22;5038;53.064;8.624;2023-05-14T11:01:05;22.60;93.30
9998;DHT22;5038;53.064;8.624;2023-05-14T11:03:39;22.60;93.10
9998;DHT22;5038;53.064;8.624;2023-05-14T11:06:09;22.60;93.00
9998;DHT22;5038;53.064;8.624;2023-05-14T11:08:37;22.60;93.00
9998;DHT22;5038;53.064;8.624;2023-05-14T11:11:08;22.70;92.90
9998;DHT22;5038;53.064;8.624;2023-05-14T11:13:38;22.70;92.80
9998;DHT22;5038;53.064;8.624;2023-05-14T11:16:07;22.70;92.50
9998;DHT22;5038;53.064;8.624;2023-05-14T11:18:38;22.70;92.50
9998;DHT22;5038;53.064;8.624;2023-05-14T11:21:07;22.80;92.50
9998;DHT22;5038;53.064;8.624;2023-05-14T11:23:35;22.80;92.50
9998;DHT22;5038;53.064;8.624;2023-05-14T11:26:04;22.90;92.30
9998;DHT22;5038;53.064;8.624;2023-05-14T11:28:33;22.90;92.10
9998;DHT22;5038;53.064;8.624;2023-05-14T11:31:03;23.00;92.10
9998;DHT22;5038;53.064;8.624;2023-05-14T11:33:31;23.00;92.00
9998;DHT22;5038;53.064;8.624;2023-05-14T11:35:59;23.00;92.00
9998;DHT22;5038;53.064;8.624;2023-05-14T11:38:27;23.00;91.90
9998;DHT22;5038;53.064;8.624;2023-05-14T11:40:58;23.00;91.60
9998;DHT22;5038;53.064;8.624;2023-05-14T11:43:27;23.00;91.60
9998;DHT22;5038;53.064;8.624;2023-05-14T11:45:56;23.00;91.80
9998;DHT22;5038;53.064;8.624;2023-05-14T11:48:26;23.00;91.50
9998;DHT22;5038;53.064;8.624;2023-05-14T11:50:54;23.00;91.30
9998;DHT22;5038;53.064;8.624;2023-05-14T11:53:25;22.90;91.00
9998;DHT22;5038;53.064;8.624;2023-05-14T11:55:53;22.90;90.90
9998;DHT22;5038;53.064;8.624;2023-05-14T11:58:23;22.90;91.10
9998;DHT22;5038;53.064;8.624;2023-05-14T12:00:53;22.90;91.50
9998;DHT22;5038;53.064;8.624;2023-05-14T12:03:22;22.90;90.90
9998;DHT22;5038;53.064;8.624;2023-05-14T12:05:58;23.00;90.90
9998;DHT22;5038;53.064;8.624;2023-05-14T12:08:28;23.00;90.60
9998;DHT22;5038;53.064;8.624;2023-05-14T12:10:58;22.90;90.50
9998;DHT22;5038;53.064;8.624;2023-05-14T12:13:27;22.80;90.50
9998;DHT22;5038;53.064;8.624;2023-05-14T12:15:57;22.80;90.40
9998;DHT22;5038;53.064;8.624;2023-05-14T12:18:26;22.80;90.50
9998;DHT22;5038;53.064;8.624;2023-05-14T12:21:03;22.80;90.60
9998;DHT22;5038;53.064;8.624;2023-05-14T12:23:47;22.70;90.20
9998;DHT22;5038;53.064;8.624;2023-05-14T12:26:15;22.70;89.60
9998;DHT22;5038;53.064;8.624;2023-05-14T12:28:46;22.70;89.60
9998;DHT22;5038;53.064;8.624;2023-05-14T12:31:14;22.70;89.50
9998;DHT22;5038;53.064;8.624;2023-05-14T12:33:43;22.60;89.40
9998;DHT22;5038;53.064;8.624;2023-05-14T12:36:13;22.60;89.10
9998;DHT22;5038;53.064;8.624;2023-05-14T12:38:46;22.60;89.10
9998;DHT22;5038;53.064;8.624;2023-05-14T12:41:14;22.60;89.00
9998;DHT22;5038;53.064;8.624;2023-05-14T12:43:42;22.60;88.50
9998;DHT22;5038;53.064;8.624;2023-05-14T12:46:11;22.60;87.80
9998;DHT22;5038;53.064;8.624;2023-05-14T12:48:39;22.60;87.60
9998;DHT22;5038;53.064;8.624;2023-05-14T12:51:07;22.50;87.30
9998;DHT22;5038;53.064;8.624;2023-05-14T12:53:36;22.40;87.10
9998;DHT22;5038;53.064;8.624;2023-05-14T12:56:05;22.40;87.30
9998;DHT22;5038;53.064;8.624;2023-05-14T12:58:33;22.30;87.50
9998;DHT22;5038;53.064;8.624;2023-05-14T13:01:03;22.30;87.90
9998;DHT22;5038;53.064;8.624;2023-05-14T13:03:32;22.30;87.90
9998;DHT22;5038;53.064;8.624;2023-05-14T13:06:03;22.20;87.90
9998;DHT22;5038;53.064;8.624;2023-05-14T13:08:31;22.20;88.10
9998;DHT22;5038;53.064;8.624;2023-05-14T13:11:03;22.20;88.20
9998;DHT22;5038;53.064;8.624;2023-05-14T13:13:32;22.10;88.00
9998;DHT22;5038;53.064;8.624;2023-05-14T13:16:00;22.10;88.20
9998;DHT22;5038;53.064;8.624;2023-05-14T13:18:29;22.10;88.30
9998;DHT22;5038;53.064;8.624;2023-05-14T13:20:57;22.20;88.80
9998;DHT22;5038;53.064;8.624;2023-05-14T13:23:25;22.20;88.10
9998;DHT22;5038;53.064;8.624;2023-05-14T13:25:53;22.30;88.30
9998;DHT22;5038;53.064;8.624;2023-05-14T13:28:23;22.40;88.20
9998;DHT22;5038;53.064;8.624;2023-05-14T13:31:07;22.50;88.30
9998;DHT22;5038;53.064;8.624;2023-05-14T13:33:36;22.60;88.00
9998;DHT22;5038;53.064;8.624;2023-05-14T13:36:05;22.70;88.00
9998;DHT22;5038;53.064;8.624;2023-05-14T13:38:34;22.70;88.10
9998;DHT22;5038;53.064;8.624;2023-05-14T13:41:02;22.80;87.90
9998;DHT22;5038;53.064;8.624;2023-05-14T13:43:32;22.80;87.60
9998;DHT22;5038;53.064;8.624;2023-05-14T13:46:02;22.80;87.40
9998;DHT22;5038;53.064;8.624;2023-05-14T13:48:30;22.90;87.60
9998;DHT22;5038;53.064;8.624;2023-05-14T13:50:59;22.90;87.40
9998;DHT22;5038;53.064;8.624;2023-05-14T13:53:27;22.90;87.20
9998;DHT22;5038;53.064;8.624;2023-05-14T13:55:56;22.90;87.00
9998;DHT22;5038;53.064;8.624;2023-05-14T13:58:26;22.80;86.90
9998;DHT22;5038;53.064;8.624;2023-05-14T14:00:55;22.80;86.90
9998;DHT22;5038;53.064;8.624;2023-05-14T14:03:23;22.80;86.80
9998;DHT22;5038;53.064;8.624;2023-05-14T14:05:51;22.70;86.30
9998;DHT22;5038;53.064;8.624;2023-05-14T14:08:20;22.70;86.20
9998;DHT22;5038;53.064;8.624;2023-05-14T14:10:50;22.70;86.10
9998;DHT22;5038;53.064;8.624;2023-05-14T14:13:20;22.70;86.00
9998;DHT22;5038;53.064;8.624;2023-05-14T14:15:49;22.70;85.80
9998;DHT22;5038;53.064;8.624;2023-05-14T14:18:18;22.60;85.90
9998;DHT22;5038;53.064;8.624;2023-05-14T14:20:47;22.60;86.10
9998;DHT22;5038;53.064;8.624;2023-05-14T14:23:15;22.50;86.70
9998;DHT22;5038;53.064;8.624;2023-05-14T14:25:43;22.50;86.00
9998;DHT22;5038;53.064;8.624;2023-05-14T14:28:11;22.40;85.60
9998;DHT22;5038;53.064;8.624;2023-05-14T14:30:41;22.40;85.50
9998;DHT22;5038;53.064;8.624;2023-05-14T14:33:10;22.30;85.80
9998;DHT22;5038;53.064;8.624;2023-05-14T14:35:40;22.40;85.80
9998;DHT22;5038;53.064;8.624;2023-05-14T14:38:08;22.40;85.90
9998;DHT22;5038;53.064;8.624;2023-05-14T14:40:36;22.50;85.90
9998;DHT22;5038;53.064;8.624;2023-05-14T14:43:04;22.60;85.80
9998;DHT22;5038;53.064;8.624;2023-05-14T14:45:32;22.70;85.70
9998;DHT22;5038;53.064;8.624;2023-05-14T14:48:23;22.70;85.40
9998;DHT22;5038;53.064;8.624;2023-05-14T14:50:53;22.80;84.70
9998;DHT22;5038;53.064;8.624;2023-05-14T14:53:21;22.90;84.80
9998;DHT22;5038;53.064;8.624;2023-05-14T14:55:50;23.00;85.20
9998;DHT22;5038;53.064;8.624;2023-05-14T14:58:19;23.00;84.10
9998;DHT22;5038;53.064;8.624;2023-05-14T15:00:48;23.00;83.90
9998;DHT22;5038;53.064;8.624;2023-05-14T15:03:17;23.10;84.10
9998;DHT22;5038;53.064;8.624;2023-05-14T15:05:45;23.20;84.30
9998;DHT22;5038;53.064;8.624;2023-05-14T15:08:14;23.20;84.10
9998;DHT22;5038;53.064;8.624;2023-05-14T15:10:44;23.20;84.00
9998;DHT22;5038;53.064;8.624;2023-05-14T15:13:12;23.20;84.00
9998;DHT22;5038;53.064;8.624;2023-05-14T15:15:40;23.20;84.50
9998;DHT22;5038;53.064;8.624;2023-05-14T15:18:09;23.10;85.30
9998;DHT22;5038;53.064;8.624;2023-05-14T15:20:37;23.00;86.20
9998;DHT22;5038;53.064;8.624;2023-05-14T15:23:05;22.90;86.70
9998;DHT22;5038;53.064;8.624;2023-05-14T15:25:35;22.70;87.90
9998;DHT22;5038;53.064;8.624;2023-05-14T15:28:05;22.60;89.90
9998;DHT22;5038;53.064;8.624;2023-05-14T15:30:33;22.40;90.60
9998;DHT22;5038;53.064;8.624;2023-05-14T15:33:02;22.10;91.50
9998;DHT22;5038;53.064;8.624;2023-05-14T15:35:31;21.80;92.10
9998;DHT22;5038;53.064;8.624;2023-05-14T15:38:00;21.60;92.20
9998;DHT22;5038;53.064;8.624;2023-05-14T15:40:28;21.30;92.60
9998;DHT22;5038;53.064;8.624;2023-05-14T15:42:58;21.20;93.10
9998;DHT22;5038;53.064;8.624;2023-05-14T15:45:26;21.00;93.20
9998;DHT22;5038;53.064;8.624;2023-05-14T15:47:54;20.90;93.50
9998;DHT22;5038;53.064;8.624;2023-05-14T15:50:22;20.80;93.40
9998;DHT22;5038;53.064;8.624;2023-05-14T15:52:51;20.70;93.40
9998;DHT22;5038;53.064;8.624;2023-05-14T15:55:20;20.60;93.40
9998;DHT22;5038;53.064;8.624;2023-05-14T15:57:48;20.50;93.70
9998;DHT22;5038;53.064;8.624;2023-05-14T16:00:18;20.50;94.00
9998;DHT22;5038;53.064;8.624;2023-05-14T16:02:47;20.40;94.20
9998;DHT22;5038;53.064;8.624;2023-05-14T16:05:15;20.30;94.50
9998;DHT22;5038;53.064;8.624;2023-05-14T16:07:43;20.30;94.50
9998;DHT22;5038;53.064;8.624;2023-05-14T16:10:11;20.20;94.50
9998;DHT22;5038;53.064;8.624;2023-05-14T16:12:39;20.10;94.80
9998;DHT22;5038;53.064;8.624;2023-05-14T16:15:08;20.00;94.70